createdAt,value
2018-10-01T00:02:09.009Z,94959.03
2018-10-01T00:04:37.800Z,94955.48
2018-10-01T00:07:06.835Z,94949.84
2018-10-01T00:09:35.703Z,94952.66
2018-10-01T00:12:04.672Z,94949.53
2018-10-01T00:14:33.536Z,94945.80
2018-10-01T00:17:02.405Z,94944.48
2018-10-01T00:19:36.396Z,94939.63
2018-10-01T00:22:10.487Z,94931.36
2018-10-01T00:24:39.418Z,94924.49
2018-10-01T00:27:08.315Z,94923.06
2018-10-01T00:29:37.075Z,94917.81
2018-10-01T00:32:05.983Z,94912.57
2018-10-01T00:34:34.750Z,94909.33
2018-10-01T00:37:03.540Z,94906.32
2018-10-01T00:39:32.372Z,94907.32
2018-10-01T00:42:01.168Z,94900.95
2018-10-01T00:44:29.983Z,94903.91
2018-10-01T00:46:58.769Z,94902.30
2018-10-01T00:49:27.627Z,94898.73
2018-10-01T00:51:59.434Z,94898.36
2018-10-01T00:54:28.339Z,94896.04
2018-10-01T00:56:58.308Z,94886.74
2018-10-01T00:59:27.158Z,94886.85
2018-10-01T01:01:55.999Z,94885.31
2018-10-01T01:04:24.795Z,94880.48
2018-10-01T01:06:53.635Z,94877.55
2018-10-01T01:09:22.546Z,94875.84
2018-10-01T01:11:51.335Z,94868.75
2018-10-01T01:14:20.302Z,94868.25
2018-10-01T01:16:49.162Z,94871.91
2018-10-01T01:19:17.931Z,94868.66
2018-10-01T01:21:46.947Z,94866.76
2018-10-01T01:24:15.780Z,94865.13
2018-10-01T01:26:44.639Z,94851.30
2018-10-01T01:29:13.397Z,94858.77
2018-10-01T01:31:42.238Z,94855.64
2018-10-01T01:34:11.547Z,94853.09
2018-10-01T01:36:40.331Z,94850.38
2018-10-01T01:39:10.636Z,94849.07
2018-10-01T01:41:39.738Z,94847.84
2018-10-01T01:44:08.900Z,94841.01
2018-10-01T01:46:38.019Z,94845.73
2018-10-01T01:49:06.838Z,94847.16
2018-10-01T01:51:35.662Z,94839.78
2018-10-01T01:54:04.635Z,94841.41
2018-10-01T01:56:33.523Z,94837.27
2018-10-01T01:59:02.339Z,94835.77
2018-10-01T02:01:31.211Z,94835.13
2018-10-01T02:04:00.060Z,94829.28
2018-10-01T02:06:29.249Z,94826.45
2018-10-01T02:08:58.037Z,94830.30
2018-10-01T02:11:26.832Z,94825.55
2018-10-01T02:13:55.753Z,94827.97
2018-10-01T02:16:24.585Z,94819.58
2018-10-01T02:18:53.395Z,94819.36
2018-10-01T02:21:22.285Z,94821.68
2018-10-01T02:23:51.118Z,94811.30
2018-10-01T02:26:20.039Z,94818.05
2018-10-01T02:28:48.926Z,94816.73
2018-10-01T02:31:17.739Z,94805.22
2018-10-01T02:33:47.152Z,94809.57
2018-10-01T02:36:15.989Z,94800.58
2018-10-01T02:38:44.917Z,94803.52
2018-10-01T02:41:13.949Z,94804.13
2018-10-01T02:43:42.795Z,94803.11
2018-10-01T02:46:11.562Z,94796.24
2018-10-01T02:48:40.512Z,94792.80
2018-10-01T02:51:09.492Z,94793.09
2018-10-01T02:53:43.561Z,94784.09
2018-10-01T02:56:12.452Z,94792.08
2018-10-01T02:58:41.207Z,94787.83
2018-10-01T03:01:10.076Z,94788.84
2018-10-01T03:03:39.868Z,94786.72
2018-10-01T03:06:08.799Z,94787.53
2018-10-01T03:08:37.694Z,94778.95
2018-10-01T03:11:06.607Z,94776.55
2018-10-01T03:13:35.463Z,94775.84
2018-10-01T03:16:04.306Z,94776.72
2018-10-01T03:18:33.236Z,94776.42
2018-10-01T03:21:02.078Z,94776.11
2018-10-01T03:23:30.846Z,94771.59
2018-10-01T03:25:59.736Z,94758.88
2018-10-01T03:28:28.624Z,94765.44
2018-10-01T03:30:57.512Z,94762.91
2018-10-01T03:33:26.594Z,94755.95
2018-10-01T03:35:55.487Z,94753.92
2018-10-01T03:38:24.340Z,94753.42
2018-10-01T03:40:53.152Z,94745.14
2018-10-01T03:43:22.074Z,94745.44
2018-10-01T03:45:50.912Z,94744.53
2018-10-01T03:48:19.751Z,94750.09
2018-10-01T03:50:48.568Z,94748.37
2018-10-01T03:53:17.637Z,94751.30
2018-10-01T03:55:46.461Z,94747.23
2018-10-01T03:58:15.413Z,94739.66
2018-10-01T04:00:44.203Z,94740.56
2018-10-01T04:03:12.968Z,94738.03
2018-10-01T04:05:41.736Z,94740.09
2018-10-01T04:08:10.514Z,94733.13
2018-10-01T04:10:39.399Z,94734.61
2018-10-01T04:13:08.188Z,94731.70
2018-10-01T04:15:37.042Z,94732.58
2018-10-01T04:18:05.819Z,94722.79
2018-10-01T04:20:34.614Z,94726.02
2018-10-01T04:23:03.776Z,94720.39
2018-10-01T04:25:32.602Z,94716.26
2018-10-01T04:28:01.389Z,94713.53
2018-10-01T04:30:30.263Z,94714.64
2018-10-01T04:32:59.095Z,94713.33
2018-10-01T04:35:27.902Z,94701.31
2018-10-01T04:37:56.791Z,94706.05
2018-10-01T04:40:25.600Z,94693.73
2018-10-01T04:42:54.463Z,94694.84
2018-10-01T04:45:23.276Z,94696.77
2018-10-01T04:47:52.128Z,94697.20
2018-10-01T04:50:20.976Z,94692.45
2018-10-01T04:52:49.812Z,94691.52
2018-10-01T04:55:18.679Z,94690.70
2018-10-01T04:57:47.507Z,94695.38
2018-10-01T05:00:16.497Z,94689.39
2018-10-01T05:02:45.346Z,94686.77
2018-10-01T05:05:14.256Z,94687.67
2018-10-01T05:07:43.124Z,94684.28
2018-10-01T05:10:12.016Z,94683.06
2018-10-01T05:12:40.905Z,94680.10
2018-10-01T05:15:09.757Z,94680.30
2018-10-01T05:17:38.746Z,94680.10
2018-10-01T05:20:07.560Z,94678.48
2018-10-01T05:22:36.486Z,94671.32
2018-10-01T05:25:05.604Z,94678.48
2018-10-01T05:27:34.857Z,94665.66
2018-10-01T05:30:07.122Z,94670.67
2018-10-01T05:32:35.971Z,94666.94
2018-10-01T05:35:04.889Z,94671.09
2018-10-01T05:37:33.770Z,94666.02
2018-10-01T05:40:02.733Z,94669.34
2018-10-01T05:42:31.520Z,94661.16
2018-10-01T05:45:00.410Z,94671.11
2018-10-01T05:47:29.491Z,94669.75
2018-10-01T05:49:58.348Z,94668.14
2018-10-01T05:52:27.337Z,94669.73
2018-10-01T05:54:56.712Z,94664.43
2018-10-01T05:57:25.908Z,94670.63
2018-10-01T05:59:54.847Z,94674.81
2018-10-01T06:02:23.756Z,94665.35
2018-10-01T06:04:52.597Z,94669.84
2018-10-01T06:07:21.652Z,94670.23
2018-10-01T06:09:50.548Z,94672.80
2018-10-01T06:12:19.444Z,94669.38
2018-10-01T06:14:48.296Z,94671.33
2018-10-01T06:17:17.094Z,94676.38
2018-10-01T06:19:46.046Z,94674.20
2018-10-01T06:22:15.043Z,94675.06
2018-10-01T06:24:43.892Z,94665.95
2018-10-01T06:27:12.669Z,94667.20
2018-10-01T06:29:41.552Z,94671.77
2018-10-01T06:32:10.356Z,94669.66
2018-10-01T06:34:39.142Z,94672.09
2018-10-01T06:37:08.385Z,94675.45
2018-10-01T06:39:37.284Z,94671.72
2018-10-01T06:42:06.229Z,94675.66
2018-10-01T06:44:35.193Z,94674.27
2018-10-01T06:47:04.165Z,94681.66
2018-10-01T06:49:33.097Z,94678.30
2018-10-01T06:52:01.997Z,94683.05
2018-10-01T06:54:30.893Z,94677.92
2018-10-01T06:57:00.124Z,94680.72
2018-10-01T06:59:29.061Z,94681.79
2018-10-01T07:01:57.856Z,94685.02
2018-10-01T07:04:26.780Z,94688.53
2018-10-01T07:06:55.583Z,94680.20
2018-10-01T07:09:26.299Z,94684.64
2018-10-01T07:11:55.292Z,94683.44
2018-10-01T07:14:24.284Z,94687.98
2018-10-01T07:16:53.204Z,94685.64
2018-10-01T07:19:22.808Z,94691.05
2018-10-01T07:21:51.614Z,94687.08
2018-10-01T07:24:20.418Z,94691.64
2018-10-01T07:26:49.211Z,94693.27
2018-10-01T07:29:18.151Z,94694.69
2018-10-01T07:31:47.039Z,94696.78
2018-10-01T07:34:15.948Z,94695.31
2018-10-01T07:36:44.744Z,94696.37
2018-10-01T07:39:13.540Z,94688.55
2018-10-01T07:41:42.491Z,94688.67
2018-10-01T07:44:11.413Z,94679.00
2018-10-01T07:46:40.400Z,94677.20
2018-10-01T07:49:09.268Z,94683.50
2018-10-01T07:51:38.148Z,94673.10
2018-10-01T07:54:07.572Z,94670.66
2018-10-01T07:56:36.376Z,94665.63
2018-10-01T07:59:05.435Z,94665.48
2018-10-01T08:01:34.323Z,94668.05
2018-10-01T08:04:03.226Z,94671.81
2018-10-01T08:06:32.047Z,94668.03
2018-10-01T08:09:00.954Z,94663.30
2018-10-01T08:11:29.915Z,94659.16
2018-10-01T08:13:58.754Z,94657.52
2018-10-01T08:16:27.522Z,94650.92
2018-10-01T08:18:56.360Z,94648.53
2018-10-01T08:21:25.156Z,94644.55
2018-10-01T08:23:54.052Z,94639.88
2018-10-01T08:26:22.897Z,94637.64
2018-10-01T08:28:51.687Z,94637.28
2018-10-01T08:31:20.551Z,94631.43
2018-10-01T08:33:49.375Z,94633.34
2018-10-01T08:36:18.227Z,94626.73
2018-10-01T08:38:47.149Z,94626.14
2018-10-01T08:41:16.124Z,94623.42
2018-10-01T08:43:45.194Z,94618.83
2018-10-01T08:46:14.054Z,94623.44
2018-10-01T08:48:47.440Z,94620.45
2018-10-01T08:51:20.535Z,94609.74
2018-10-01T08:53:54.264Z,94610.67
2018-10-01T08:56:23.070Z,94608.09
2018-10-01T08:58:52.051Z,94606.01
2018-10-01T09:01:20.895Z,94607.80
2018-10-01T09:03:49.806Z,94604.09
2018-10-01T09:06:18.618Z,94602.62
2018-10-01T09:08:47.462Z,94598.72
2018-10-01T09:11:16.307Z,94596.34
2018-10-01T09:13:45.798Z,94595.41
2018-10-01T09:16:14.686Z,94602.30
2018-10-01T09:18:43.568Z,94596.53
2018-10-01T09:21:12.482Z,94599.14
2018-10-01T09:23:41.372Z,94594.12
2018-10-01T09:26:10.535Z,94591.23
2018-10-01T09:28:39.521Z,94583.95
2018-10-01T09:31:08.395Z,94589.01
2018-10-01T09:33:37.466Z,94581.39
2018-10-01T09:36:06.394Z,94579.35
2018-10-01T09:38:35.398Z,94576.31
2018-10-01T09:41:04.508Z,94575.23
2018-10-01T09:43:33.357Z,94572.27
2018-10-01T09:46:02.238Z,94575.80
2018-10-01T09:48:31.203Z,94572.81
2018-10-01T09:51:00.141Z,94570.69
2018-10-01T09:53:29.032Z,94570.40
2018-10-01T09:55:57.906Z,94564.05
2018-10-01T09:58:26.815Z,94557.35
2018-10-01T10:01:00.729Z,94557.32
2018-10-01T10:03:29.606Z,94544.59
2018-10-01T10:05:58.460Z,94544.34
2018-10-01T10:08:27.259Z,94537.71
2018-10-01T10:10:56.327Z,94536.05
2018-10-01T10:13:25.192Z,94536.55
2018-10-01T10:15:54.173Z,94532.27
2018-10-01T10:18:23.061Z,94529.45
2018-10-01T10:20:52.118Z,94529.62
2018-10-01T10:23:20.893Z,94522.39
2018-10-01T10:25:49.708Z,94531.30
2018-10-01T10:28:18.601Z,94524.27
2018-10-01T10:30:47.492Z,94521.59
2018-10-01T10:33:16.353Z,94517.52
2018-10-01T10:35:45.464Z,94518.70
2018-10-01T10:38:14.350Z,94515.81
2018-10-01T10:40:43.263Z,94510.66
2018-10-01T10:43:12.188Z,94509.24
2018-10-01T10:45:41.098Z,94500.20
2018-10-01T10:48:09.979Z,94496.78
2018-10-01T10:50:39.096Z,94489.26
2018-10-01T10:53:08.115Z,94487.12
2018-10-01T10:55:36.955Z,94490.00
2018-10-01T10:58:05.896Z,94475.20
2018-10-01T11:00:34.770Z,94475.66
2018-10-01T11:03:03.693Z,94469.83
2018-10-01T11:05:32.680Z,94468.28
2018-10-01T11:08:01.544Z,94462.54
2018-10-01T11:10:30.561Z,94461.10
2018-10-01T11:12:59.451Z,94447.78
2018-10-01T11:15:28.276Z,94451.05
2018-10-01T11:17:57.289Z,94446.45
2018-10-01T11:20:26.490Z,94448.09
2018-10-01T11:22:55.182Z,94437.73
2018-10-01T11:25:24.315Z,94432.61
2018-10-01T11:27:53.433Z,94429.19
2018-10-01T11:30:22.418Z,94431.87
2018-10-01T11:32:51.272Z,94428.97
2018-10-01T11:35:20.411Z,94427.64
2018-10-01T11:37:49.194Z,94427.12
2018-10-01T11:40:18.040Z,94418.96
2018-10-01T11:42:46.912Z,94422.19
2018-10-01T11:45:15.779Z,94420.59
2018-10-01T11:47:44.729Z,94415.75
2018-10-01T11:50:13.690Z,94418.61
2018-10-01T11:52:42.630Z,94421.12
2018-10-01T11:55:11.501Z,94421.78
2018-10-01T11:57:41.099Z,94407.47
2018-10-01T12:00:11.103Z,94414.87
2018-10-01T12:02:39.909Z,94408.53
2018-10-01T12:05:09.165Z,94413.36
2018-10-01T12:07:38.867Z,94412.68
2018-10-01T12:10:07.785Z,94408.58
2018-10-01T12:12:36.733Z,94407.36
2018-10-01T12:15:05.992Z,94404.77
2018-10-01T12:17:35.043Z,94410.38
2018-10-01T12:20:04.247Z,94405.86
2018-10-01T12:22:33.253Z,94396.31
2018-10-01T12:25:02.201Z,94394.72
2018-10-01T12:27:31.122Z,94391.76
2018-10-01T12:30:00.112Z,94389.81
2018-10-01T12:32:29.013Z,94396.16
2018-10-01T12:34:58.028Z,94391.61
2018-10-01T12:37:26.972Z,94386.05
2018-10-01T12:39:55.735Z,94389.77
2018-10-01T12:42:24.561Z,94388.66
2018-10-01T12:44:53.353Z,94395.59
2018-10-01T12:47:22.172Z,94391.63
2018-10-01T12:49:50.963Z,94381.03
2018-10-01T12:52:20.014Z,94387.11
2018-10-01T12:54:48.904Z,94382.84
2018-10-01T12:57:17.895Z,94382.84
2018-10-01T12:59:46.796Z,94376.78
2018-10-01T13:02:15.624Z,94372.02
2018-10-01T13:04:44.544Z,94370.43
2018-10-01T13:07:13.347Z,94367.17
2018-10-01T13:09:42.197Z,94357.09
2018-10-01T13:12:10.998Z,94362.38
2018-10-01T13:14:40.578Z,94350.97
2018-10-01T13:17:09.393Z,94362.11
2018-10-01T13:19:38.333Z,94356.03
2018-10-01T13:22:07.965Z,94355.02
2018-10-01T13:24:36.949Z,94352.91
2018-10-01T13:27:06.302Z,94358.49
2018-10-01T13:29:35.373Z,94353.70
2018-10-01T13:32:04.284Z,94349.40
2018-10-01T13:34:33.315Z,94353.89
2018-10-01T13:37:02.155Z,94356.51
2018-10-01T13:39:30.940Z,94344.04
2018-10-01T13:41:59.832Z,94347.01
2018-10-01T13:44:28.827Z,94345.14
2018-10-01T13:46:57.983Z,94351.30
2018-10-01T13:49:26.862Z,94345.47
2018-10-01T13:51:55.708Z,94341.75
2018-10-01T13:54:24.624Z,94338.01
2018-10-01T13:56:53.754Z,94333.52
2018-10-01T13:59:22.688Z,94339.92
2018-10-01T14:01:51.821Z,94339.34
2018-10-01T14:04:20.848Z,94338.52
2018-10-01T14:06:49.686Z,94337.70
2018-10-01T14:09:18.741Z,94335.30
2018-10-01T14:11:47.663Z,94336.35
2018-10-01T14:14:17.175Z,94329.97
2018-10-01T14:16:46.072Z,94341.38
2018-10-01T14:19:15.320Z,94338.63
2018-10-01T14:21:44.422Z,94342.58
2018-10-01T14:24:13.546Z,94340.98
2018-10-01T14:26:42.381Z,94335.67
2018-10-01T14:29:11.592Z,94346.34
2018-10-01T14:31:40.741Z,94349.51
2018-10-01T14:34:10.256Z,94343.92
2018-10-01T14:36:40.351Z,94347.38
2018-10-01T14:39:10.307Z,94345.73
2018-10-01T14:41:39.877Z,94346.28
2018-10-01T14:44:09.875Z,94338.27
2018-10-01T14:46:38.849Z,94332.66
2018-10-01T14:49:07.763Z,94333.45
2018-10-01T14:51:36.636Z,94343.20
2018-10-01T14:54:05.469Z,94346.13
2018-10-01T14:56:34.558Z,94344.25
2018-10-01T14:59:03.544Z,94342.70
2018-10-01T15:01:32.481Z,94341.91
2018-10-01T15:04:01.300Z,94335.77
2018-10-01T15:06:30.338Z,94329.42
2018-10-01T15:08:59.251Z,94325.14
2018-10-01T15:11:28.112Z,94324.07
2018-10-01T15:13:59.004Z,94324.23
2018-10-01T15:16:27.822Z,94316.02
2018-10-01T15:18:56.699Z,94322.39
2018-10-01T15:21:25.584Z,94327.64
2018-10-01T15:23:54.520Z,94330.20
2018-10-01T15:26:23.448Z,94331.97
2018-10-01T15:28:52.424Z,94337.23
2018-10-01T15:31:21.205Z,94342.27
2018-10-01T15:33:50.099Z,94336.66
2018-10-01T15:36:18.955Z,94332.68
2018-10-01T15:38:48.009Z,94330.49
2018-10-01T15:41:16.904Z,94336.00
2018-10-01T15:43:45.745Z,94335.69
2018-10-01T15:46:14.622Z,94345.94
2018-10-01T15:48:43.482Z,94350.61
2018-10-01T15:51:12.285Z,94345.59
2018-10-01T15:53:41.305Z,94341.30
2018-10-01T15:56:10.206Z,94341.27
2018-10-01T15:58:39.133Z,94347.05
2018-10-01T16:01:08.048Z,94342.75
2018-10-01T16:03:36.936Z,94344.28
2018-10-01T16:06:05.924Z,94348.42
2018-10-01T16:08:34.740Z,94348.34
2018-10-01T16:11:03.690Z,94352.27
2018-10-01T16:13:32.693Z,94356.95
2018-10-01T16:16:01.537Z,94354.30
2018-10-01T16:18:30.345Z,94361.64
2018-10-01T16:20:59.157Z,94362.39
2018-10-01T16:23:27.972Z,94368.16
2018-10-01T16:25:56.849Z,94369.44
2018-10-01T16:28:25.959Z,94376.02
2018-10-01T16:30:54.836Z,94376.24
2018-10-01T16:33:23.644Z,94376.16
2018-10-01T16:35:52.521Z,94376.95
2018-10-01T16:38:21.380Z,94382.70
2018-10-01T16:40:50.513Z,94382.10
2018-10-01T16:43:19.707Z,94388.66
2018-10-01T16:45:48.772Z,94393.09
2018-10-01T16:48:17.773Z,94397.28
2018-10-01T16:50:46.630Z,94400.73
2018-10-01T16:53:15.689Z,94400.40
2018-10-01T16:55:44.562Z,94402.98
2018-10-01T16:58:13.414Z,94406.00
2018-10-01T17:00:42.470Z,94413.58
2018-10-01T17:03:11.383Z,94415.06
2018-10-01T17:05:40.305Z,94415.06
2018-10-01T17:08:09.160Z,94415.67
2018-10-01T17:10:38.028Z,94415.73
2018-10-01T17:13:07.014Z,94414.62
2018-10-01T17:15:36.306Z,94424.13
2018-10-01T17:18:05.225Z,94419.33
2018-10-01T17:20:34.107Z,94434.25
2018-10-01T17:23:03.041Z,94442.17
2018-10-01T17:25:31.931Z,94441.89
2018-10-01T17:28:00.815Z,94451.80
2018-10-01T17:30:30.859Z,94455.36
2018-10-01T17:32:59.752Z,94459.76
2018-10-01T17:35:28.587Z,94463.86
2018-10-01T17:37:57.611Z,94475.17
2018-10-01T17:40:26.556Z,94472.61
2018-10-01T17:42:55.427Z,94468.25
2018-10-01T17:45:24.216Z,94472.70
2018-10-01T17:47:53.123Z,94478.08
2018-10-01T17:50:22.073Z,94489.92
2018-10-01T17:52:51.244Z,94477.77
2018-10-01T17:55:20.074Z,94481.44
2018-10-01T17:57:48.970Z,94487.16
2018-10-01T18:00:19.977Z,94493.66
2018-10-01T18:02:49.156Z,94486.49
2018-10-01T18:05:18.108Z,94489.36
2018-10-01T18:07:46.937Z,94491.93
2018-10-01T18:10:15.753Z,94494.34
2018-10-01T18:12:44.627Z,94490.16
2018-10-01T18:15:13.460Z,94489.94
2018-10-01T18:17:42.493Z,94490.06
2018-10-01T18:20:11.356Z,94494.56
2018-10-01T18:22:40.281Z,94509.59
2018-10-01T18:25:09.291Z,94503.35
2018-10-01T18:27:38.309Z,94506.73
2018-10-01T18:30:08.520Z,94499.52
2018-10-01T18:32:37.482Z,94503.86
2018-10-01T18:35:07.216Z,94497.06
2018-10-01T18:37:36.187Z,94504.81
2018-10-01T18:40:07.446Z,94510.38
2018-10-01T18:42:36.258Z,94516.78
2018-10-01T18:45:12.161Z,94518.68
2018-10-01T18:47:41.348Z,94512.16
2018-10-01T18:50:10.617Z,94522.20
2018-10-01T18:52:39.529Z,94526.06
2018-10-01T18:55:09.057Z,94526.74
2018-10-01T18:57:37.892Z,94531.41
2018-10-01T19:00:08.361Z,94536.61
2018-10-01T19:02:37.457Z,94534.78
2018-10-01T19:05:07.269Z,94531.76
2018-10-01T19:07:36.210Z,94536.27
2018-10-01T19:10:05.852Z,94530.89
2018-10-01T19:12:34.693Z,94530.59
2018-10-01T19:15:03.744Z,94540.64
2018-10-01T19:17:32.733Z,94540.64
2018-10-01T19:20:01.577Z,94542.80
2018-10-01T19:22:30.448Z,94542.34
2018-10-01T19:24:59.305Z,94543.60
2018-10-01T19:27:28.289Z,94542.77
2018-10-01T19:29:57.199Z,94548.27
2018-10-01T19:32:26.444Z,94545.04
2018-10-01T19:34:55.272Z,94542.65
2018-10-01T19:37:24.302Z,94548.47
2018-10-01T19:39:53.371Z,94547.00
2018-10-01T19:42:22.250Z,94546.84
2018-10-01T19:44:51.158Z,94546.26
2018-10-01T19:47:20.167Z,94543.04
2018-10-01T19:49:49.120Z,94550.86
2018-10-01T19:52:17.973Z,94544.37
2018-10-01T19:54:46.781Z,94551.48
2018-10-01T19:57:15.672Z,94554.75
2018-10-01T19:59:44.812Z,94553.95
2018-10-01T20:02:13.691Z,94558.48
2018-10-01T20:04:42.568Z,94561.13
2018-10-01T20:07:11.644Z,94557.32
2018-10-01T20:09:43.446Z,94555.67
2018-10-01T20:12:13.356Z,94548.72
2018-10-01T20:14:42.741Z,94561.55
2018-10-01T20:17:11.938Z,94559.09
2018-10-01T20:19:41.146Z,94558.95
2018-10-01T20:22:12.191Z,94561.80
2018-10-01T20:24:41.420Z,94565.20
2018-10-01T20:27:10.613Z,94564.03
2018-10-01T20:29:40.089Z,94564.21
2018-10-01T20:32:09.067Z,94568.90
2018-10-01T20:34:37.860Z,94563.67
2018-10-01T20:37:06.917Z,94564.21
2018-10-01T20:39:35.808Z,94564.77
2018-10-01T20:42:04.733Z,94561.33
2018-10-01T20:44:33.658Z,94561.58
2018-10-01T20:47:02.525Z,94561.72
2018-10-01T20:49:31.476Z,94571.17
2018-10-01T20:52:00.303Z,94563.48
2018-10-01T20:54:29.292Z,94564.69
2018-10-01T20:56:58.782Z,94568.56
2018-10-01T20:59:27.671Z,94576.39
2018-10-01T21:01:56.565Z,94578.80
2018-10-01T21:04:25.357Z,94587.22
2018-10-01T21:06:54.213Z,94594.61
2018-10-01T21:09:23.009Z,94589.13
2018-10-01T21:11:51.781Z,94588.11
2018-10-01T21:14:20.632Z,94593.48
2018-10-01T21:16:49.764Z,94592.54
2018-10-01T21:19:18.609Z,94594.78
2018-10-01T21:21:47.515Z,94595.17
2018-10-01T21:24:16.342Z,94597.44
2018-10-01T21:26:45.138Z,94592.56
2018-10-01T21:29:13.979Z,94591.94
2018-10-01T21:31:42.790Z,94597.34
2018-10-01T21:34:11.795Z,94601.52
2018-10-01T21:36:40.788Z,94598.59
2018-10-01T21:39:11.517Z,94596.47
2018-10-01T21:41:40.364Z,94593.61
2018-10-01T21:44:09.228Z,94590.27
2018-10-01T21:46:38.187Z,94591.00
2018-10-01T21:49:07.051Z,94594.58
2018-10-01T21:51:35.975Z,94599.07
2018-10-01T21:54:04.879Z,94599.84
2018-10-01T21:56:33.748Z,94602.77
2018-10-01T21:59:02.550Z,94601.23
2018-10-01T22:01:36.451Z,94607.91
2018-10-01T22:04:05.578Z,94611.71
2018-10-01T22:06:34.484Z,94610.34
2018-10-01T22:09:03.564Z,94607.50
2018-10-01T22:11:32.464Z,94605.73
2018-10-01T22:14:01.365Z,94608.23
2018-10-01T22:16:30.231Z,94609.98
2018-10-01T22:18:59.202Z,94620.13
2018-10-01T22:21:28.016Z,94611.73
2018-10-01T22:23:56.889Z,94612.32
2018-10-01T22:26:25.733Z,94612.48
2018-10-01T22:28:54.637Z,94613.09
2018-10-01T22:31:23.460Z,94614.79
2018-10-01T22:33:52.247Z,94618.73
2018-10-01T22:36:21.011Z,94620.91
2018-10-01T22:38:49.856Z,94619.59
2018-10-01T22:41:18.744Z,94618.14
2018-10-01T22:43:47.574Z,94621.19
2018-10-01T22:46:16.489Z,94622.80
2018-10-01T22:48:45.312Z,94634.34
2018-10-01T22:51:14.233Z,94638.75
2018-10-01T22:53:43.088Z,94639.09
2018-10-01T22:56:11.909Z,94642.97
2018-10-01T22:58:40.785Z,94647.28
2018-10-01T23:01:09.746Z,94653.34
2018-10-01T23:03:38.625Z,94653.20
2018-10-01T23:06:07.693Z,94657.27
2018-10-01T23:08:36.517Z,94657.13
2018-10-01T23:11:05.373Z,94667.27
2018-10-01T23:13:34.191Z,94660.39
2018-10-01T23:16:03.017Z,94662.59
2018-10-01T23:18:32.017Z,94654.70
2018-10-01T23:21:00.791Z,94654.77
2018-10-01T23:23:29.927Z,94650.89
2018-10-01T23:25:58.887Z,94653.88
2018-10-01T23:28:27.708Z,94650.77
2018-10-01T23:30:56.654Z,94650.51
2018-10-01T23:33:25.443Z,94647.88
2018-10-01T23:35:54.231Z,94651.28
2018-10-01T23:38:23.137Z,94653.34
2018-10-01T23:40:52.169Z,94655.97
2018-10-01T23:43:20.948Z,94656.90
2018-10-01T23:45:49.778Z,94655.08
2018-10-01T23:48:18.657Z,94650.20
2018-10-01T23:50:47.477Z,94659.98
2018-10-01T23:53:16.382Z,94668.61
2018-10-01T23:55:45.320Z,94674.80
2018-10-01T23:58:14.096Z,94680.98
